Time;durP1;ratioP1;P1;durP2;ratioP2;P2;SDS_P1;SDS_P2;PMS_P1;PMS_P2;Temp;Humidity;BMP_temperature;BMP_pressure;BME280_temperature;BME280_humidity;BME280_pressure;Samples;Min_cycle;Max_cycle;Signal;HPM_P1;HPM_P2
2022/11/05 00:09:31;;;;;;;5.40;3.60;;;;;;;7.94;100.00;101326.00;5014474;28;20052;-69
2022/11/05 00:17:27;;;;;;;5.43;3.45;;;;;;;7.82;100.00;101341.91;5032828;28;20036;-71
2022/11/05 00:19:52;;;;;;;5.03;3.15;;;;;;;7.78;100.00;101335.22;5033244;28;20034;-68
2022/11/05 00:25:15;;;;;;;4.32;3.10;;;;;;;7.71;100.00;101345.09;5032563;28;20132;-69
2022/11/05 00:27:45;;;;;;;6.13;3.75;;;;;;;7.65;100.00;101340.50;5033938;28;20125;-70
2022/11/05 00:30:13;;;;;;;5.53;3.40;;;;;;;7.61;100.00;101340.88;5033146;28;20090;-68
2022/11/05 00:32:39;;;;;;;5.57;3.42;;;;;;;7.50;100.00;101341.38;5025586;28;20450;-72
2022/11/05 00:35:06;;;;;;;6.15;3.65;;;;;;;7.48;100.00;101342.63;5027831;28;20057;-70
2022/11/05 00:37:31;;;;;;;4.40;3.20;;;;;;;7.48;100.00;101354.22;5033344;28;20022;-70
2022/11/05 00:39:56;;;;;;;5.97;3.47;;;;;;;7.41;100.00;101366.78;5033519;28;20020;-71
2022/11/05 00:45:06;;;;;;;5.22;3.22;;;;;;;7.37;100.00;101362.81;5032060;28;20049;-72
2022/11/05 00:50:20;;;;;;;5.30;3.35;;;;;;;7.36;100.00;101367.34;5033106;28;20157;-72
2022/11/05 00:52:58;;;;;;;5.80;3.60;;;;;;;7.30;100.00;101380.75;5033641;28;20025;-72
2022/11/05 00:55:32;;;;;;;4.55;3.70;;;;;;;7.26;100.00;101386.50;5018645;28;20022;-72
2022/11/05 00:57:58;;;;;;;4.93;3.42;;;;;;;7.14;100.00;101379.97;5032882;28;20036;-73
2022/11/05 01:00:27;;;;;;;5.30;3.35;;;;;;;7.12;100.00;101387.38;5031663;28;20345;-71
2022/11/05 01:02:56;;;;;;;5.38;3.47;;;;;;;7.08;100.00;101378.84;5018760;28;20036;-73
2022/11/05 01:05:21;;;;;;;6.63;3.35;;;;;;;7.09;100.00;101390.44;5031986;28;20029;-70
2022/11/05 01:07:47;;;;;;;7.35;3.40;;;;;;;7.04;100.00;101392.88;5031730;28;20082;-71
2022/11/05 01:10:12;;;;;;;4.82;3.45;;;;;;;7.05;100.00;101389.13;5031240;28;20350;-70
2022/11/05 01:12:37;;;;;;;4.15;3.30;;;;;;;7.02;100.00;101395.75;5032971;28;20029;-70
2022/11/05 01:15:03;;;;;;;5.00;3.60;;;;;;;6.97;100.00;101397.31;5030910;28;20021;-71
2022/11/05 01:17:28;;;;;;;6.25;3.70;;;;;;;6.86;100.00;101404.84;5032941;28;20032;-70
2022/11/05 01:19:54;;;;;;;4.68;3.40;;;;;;;6.87;100.00;101402.97;5032712;28;20556;-71
2022/11/05 01:22:19;;;;;;;6.10;3.60;;;;;;;6.82;100.00;101405.41;5032781;28;20072;-72
2022/11/05 01:24:44;;;;;;;6.20;3.95;;;;;;;6.85;100.00;101408.56;5031207;28;20033;-70
2022/11/05 01:27:09;;;;;;;5.55;3.83;;;;;;;6.88;100.00;101413.59;5031301;28;20029;-71
2022/11/05 01:29:35;;;;;;;5.50;3.70;;;;;;;6.84;100.00;101408.75;5029373;28;20040;-70
2022/11/05 01:32:00;;;;;;;5.53;3.50;;;;;;;6.85;100.00;101422.00;5012868;28;20061;-73
2022/11/05 01:34:25;;;;;;;6.07;3.60;;;;;;;6.89;100.00;101417.09;5020775;28;20029;-72
2022/11/05 01:36:50;;;;;;;6.22;3.63;;;;;;;6.86;100.00;101423.69;5032634;28;20032;-72
2022/11/05 01:39:16;;;;;;;6.63;3.58;;;;;;;6.85;100.00;101422.00;5032271;28;20163;-71
2022/11/05 01:41:41;;;;;;;6.68;3.42;;;;;;;6.87;100.00;101424.50;5032656;28;20456;-70
2022/11/05 01:44:46;;;;;;;7.00;3.28;;;;;;;6.88;100.00;101421.66;5030475;28;20472;-73
2022/11/05 01:47:24;;;;;;;5.78;3.40;;;;;;;6.79;100.00;101421.94;5032059;28;20029;-70
2022/11/05 01:49:50;;;;;;;3.90;2.95;;;;;;;6.73;100.00;101420.81;5032512;28;20067;-70
2022/11/05 01:52:15;;;;;;;5.65;2.95;;;;;;;6.73;100.00;101424.34;5030986;28;20475;-72
2022/11/05 01:54:41;;;;;;;6.90;3.33;;;;;;;6.77;100.00;101427.50;5030031;28;20029;-71
2022/11/05 01:57:09;;;;;;;6.47;3.30;;;;;;;6.79;100.00;101421.94;5032284;28;20023;-70
2022/11/05 01:59:43;;;;;;;5.45;3.30;;;;;;;6.67;100.00;101418.84;5031334;28;20025;-70
2022/11/05 02:02:08;;;;;;;5.60;3.20;;;;;;;6.74;100.00;101411.72;5029447;28;20481;-71
2022/11/05 02:04:38;;;;;;;4.75;3.28;;;;;;;6.68;100.00;101413.28;5029967;28;20029;-71
2022/11/05 02:07:06;;;;;;;8.95;3.40;;;;;;;6.73;100.00;101408.22;5028356;28;20029;-72
2022/11/05 02:09:37;;;;;;;8.70;3.65;;;;;;;6.74;100.00;101409.03;5032575;28;20174;-71
2022/11/05 02:12:02;;;;;;;9.43;4.07;;;;;;;6.67;100.00;101403.56;5034927;28;20112;-71
2022/11/05 02:14:28;;;;;;;7.10;3.97;;;;;;;6.75;100.00;101399.94;5034251;28;20162;-72
2022/11/05 02:17:05;;;;;;;5.93;3.80;;;;;;;6.75;100.00;101402.66;5031992;28;20040;-71
2022/11/05 02:19:58;;;;;;;9.40;4.00;;;;;;;6.70;100.00;101403.19;5036319;28;20104;-71
2022/11/05 02:22:23;;;;;;;9.40;4.25;;;;;;;6.67;100.00;101406.25;5036543;28;20079;-71
2022/11/05 02:24:51;;;;;;;9.45;4.20;;;;;;;6.68;100.00;101409.78;5034999;28;20061;-71
2022/11/05 02:27:46;;;;;;;11.65;4.65;;;;;;;6.70;100.00;101411.28;5020244;28;20037;-69
2022/11/05 02:30:28;;;;;;;8.90;4.25;;;;;;;6.64;100.00;101408.47;5026360;28;20033;-68
2022/11/05 02:33:19;;;;;;;10.50;4.57;;;;;;;6.64;100.00;101408.47;5035592;28;20051;-70
2022/11/05 02:36:05;;;;;;;9.75;4.65;;;;;;;6.66;100.00;101406.44;5034558;28;20026;-68
2022/11/05 02:38:44;;;;;;;14.60;4.50;;;;;;;6.63;100.00;101406.78;5035694;28;20029;-70
2022/11/05 02:41:22;;;;;;;10.48;4.60;;;;;;;6.60;100.00;101410.72;5035438;28;20036;-72
2022/11/05 02:44:25;;;;;;;8.43;4.20;;;;;;;6.59;100.00;101402.81;5034326;28;20034;-69
2022/11/05 02:46:56;;;;;;;10.75;4.90;;;;;;;6.57;100.00;101403.84;5018878;28;20058;-68
2022/11/05 02:49:46;;;;;;;8.93;5.00;;;;;;;6.59;100.00;101410.91;5023587;28;20065;-69
2022/11/05 02:52:20;;;;;;;7.22;4.78;;;;;;;6.60;100.00;101407.16;5023570;28;20033;-70
2022/11/05 02:55:02;;;;;;;9.68;4.78;;;;;;;6.51;100.00;101401.06;5017161;28;20025;-70
2022/11/05 02:57:29;;;;;;;12.75;5.25;;;;;;;6.54;100.00;101400.69;5035454;28;20075;-70
2022/11/05 03:00:06;;;;;;;8.90;5.10;;;;;;;6.48;100.00;101402.25;5035220;28;20487;-68
2022/11/05 03:02:31;;;;;;;9.75;5.32;;;;;;;6.43;100.00;101402.00;5032148;28;20144;-68
2022/11/05 03:04:58;;;;;;;11.15;5.53;;;;;;;6.37;100.00;101397.31;5018279;28;20033;-71
2022/11/05 03:07:38;;;;;;;10.10;5.38;;;;;;;6.39;100.00;101403.38;5047210;28;20040;-71
2022/11/05 03:10:26;;;;;;;9.88;5.40;;;;;;;6.43;100.00;101399.31;5033398;28;20040;-72
2022/11/05 03:13:09;;;;;;;9.35;5.75;;;;;;;6.43;100.00;101391.25;5015556;28;20624;-71
2022/11/05 03:15:57;;;;;;;11.70;5.78;;;;;;;6.43;100.00;101396.59;5015437;28;20362;-72
2022/11/05 03:18:57;;;;;;;8.77;6.15;;;;;;;6.39;100.00;101401.50;5015687;28;20022;-70
2022/11/05 03:21:46;;;;;;;10.80;6.07;;;;;;;6.35;100.00;101400.19;5028039;28;20076;-70
2022/11/05 03:24:26;;;;;;;10.85;6.30;;;;;;;6.31;100.00;101400.75;5015129;28;20037;-70
2022/11/05 03:27:04;;;;;;;11.48;6.85;;;;;;;6.30;100.00;101402.59;5013991;28;20061;-70
2022/11/05 03:29:37;;;;;;;13.90;6.68;;;;;;;6.30;100.00;101401.78;5028093;28;20112;-72
2022/11/05 03:32:04;;;;;;;12.27;6.22;;;;;;;6.24;100.00;101408.72;5032592;28;20363;-69
2022/11/05 03:34:34;;;;;;;10.10;6.28;;;;;;;6.23;100.00;101408.91;5034096;28;20063;-70
2022/11/05 03:37:02;;;;;;;14.20;6.40;;;;;;;6.26;100.00;101411.22;5015105;28;20026;-70
2022/11/05 03:39:36;;;;;;;12.80;7.13;;;;;;;6.16;100.00;101409.63;5015081;28;20461;-72
2022/11/05 03:42:05;;;;;;;10.45;6.45;;;;;;;6.19;100.00;101405.75;5028659;28;20033;-71
2022/11/05 03:44:35;;;;;;;12.23;7.15;;;;;;;6.17;100.00;101422.03;5033646;28;20030;-70
2022/11/05 03:47:08;;;;;;;13.77;7.30;;;;;;;6.12;100.00;101416.38;5034517;28;20471;-72
2022/11/05 03:49:39;;;;;;;11.93;7.65;;;;;;;6.10;100.00;101410.38;5033682;28;20078;-69
2022/11/05 03:52:13;;;;;;;13.07;7.07;;;;;;;6.10;100.00;101415.72;5033190;28;20124;-71
2022/11/05 03:54:39;;;;;;;11.85;7.15;;;;;;;6.13;100.00;101411.81;5033212;28;20029;-69
2022/11/05 03:57:19;;;;;;;14.27;7.70;;;;;;;6.10;100.00;101418.41;5033044;28;20021;-71
2022/11/05 03:59:47;;;;;;;12.95;7.45;;;;;;;6.07;100.00;101416.09;5034208;28;20095;-69
2022/11/05 04:02:15;;;;;;;12.40;7.38;;;;;;;6.07;100.00;101412.56;5030436;28;20380;-72
2022/11/05 04:04:40;;;;;;;14.73;7.40;;;;;;;6.05;100.00;101415.44;5032805;28;20037;-71
2022/11/05 04:15:18;;;;;;;14.73;8.40;;;;;;;5.99;100.00;101422.38;5033626;28;20040;-70
2022/11/05 04:17:43;;;;;;;15.60;7.70;;;;;;;5.99;100.00;101426.91;5033834;28;20033;-70
2022/11/05 04:25:47;;;;;;;11.90;7.70;;;;;;;5.94;100.00;101424.72;5033698;28;20033;-70
2022/11/05 04:28:13;;;;;;;11.98;7.82;;;;;;;5.88;100.00;101425.44;5033003;28;20025;-71
2022/11/05 04:30:39;;;;;;;16.83;8.20;;;;;;;5.89;100.00;101434.31;5031146;28;20040;-72
2022/11/05 04:33:07;;;;;;;16.00;8.32;;;;;;;5.83;100.00;101438.59;5033757;28;20029;-70
2022/11/05 04:35:37;;;;;;;15.05;8.45;;;;;;;5.82;100.00;101432.38;5033632;28;20025;-71
2022/11/05 04:38:05;;;;;;;13.75;8.55;;;;;;;5.84;100.00;101430.34;5017221;28;20034;-71
2022/11/05 04:40:30;;;;;;;13.88;8.15;;;;;;;5.88;100.00;101430.81;5014080;28;20076;-69
2022/11/05 04:42:56;;;;;;;15.57;8.40;;;;;;;5.84;100.00;101433.03;5033353;28;20025;-69
2022/11/05 04:45:23;;;;;;;14.23;8.20;;;;;;;5.82;100.00;101437.72;5033301;28;20053;-72
2022/11/05 04:47:48;;;;;;;11.63;8.15;;;;;;;5.82;100.00;101431.53;5033097;28;20029;-70
2022/11/05 04:50:14;;;;;;;16.42;8.45;;;;;;;5.77;100.00;101428.56;5033032;28;20027;-69
2022/11/05 04:52:40;;;;;;;16.35;8.48;;;;;;;5.73;100.00;101444.19;5030468;28;20352;-70
2022/11/05 04:55:06;;;;;;;16.25;8.50;;;;;;;5.77;100.00;101439.31;5033295;28;20025;-71
2022/11/05 04:57:31;;;;;;;14.35;8.40;;;;;;;5.81;100.00;101448.66;5031986;28;20599;-71
2022/11/05 04:59:56;;;;;;;11.02;8.00;;;;;;;5.72;100.00;101449.72;5033302;28;20057;-70
2022/11/05 05:02:22;;;;;;;11.82;8.60;;;;;;;5.83;100.00;101439.41;5029708;28;20021;-71
2022/11/05 05:04:47;;;;;;;13.10;8.32;;;;;;;5.78;100.00;101452.56;5032902;28;20029;-69
2022/11/05 05:07:12;;;;;;;14.40;8.38;;;;;;;5.81;100.00;101457.56;5032150;28;20049;-72
2022/11/05 05:09:37;;;;;;;13.63;8.88;;;;;;;5.80;100.00;101450.50;5033156;28;20043;-72
2022/11/05 05:12:03;;;;;;;14.45;8.23;;;;;;;5.83;100.00;101457.38;5031413;28;20029;-69
2022/11/05 05:14:28;;;;;;;15.38;8.65;;;;;;;5.81;100.00;101446.81;5032792;28;20029;-71
2022/11/05 05:16:53;;;;;;;14.25;8.77;;;;;;;5.82;100.00;101453.03;5032711;28;20029;-69
2022/11/05 05:19:19;;;;;;;17.15;9.32;;;;;;;5.83;100.00;101454.69;5022382;28;20034;-71
2022/11/05 05:21:44;;;;;;;15.90;9.70;;;;;;;5.85;100.00;101458.84;5019377;28;20108;-70
2022/11/05 05:24:20;;;;;;;13.90;8.75;;;;;;;5.84;100.00;101462.59;5032216;28;20029;-70
2022/11/05 05:26:49;;;;;;;16.10;9.02;;;;;;;5.84;100.00;101461.72;5031391;28;20100;-71
2022/11/05 05:29:16;;;;;;;13.50;8.82;;;;;;;5.80;100.00;101469.31;5029983;28;20083;-70
2022/11/05 05:31:41;;;;;;;16.48;9.00;;;;;;;5.81;100.00;101471.00;5031256;28;20025;-69
2022/11/05 05:34:10;;;;;;;14.43;8.80;;;;;;;5.75;100.00;101466.34;5032735;28;20043;-69
2022/11/05 05:36:35;;;;;;;19.50;9.52;;;;;;;5.80;100.00;101472.00;5023913;28;20104;-70
2022/11/05 05:39:03;;;;;;;12.48;8.40;;;;;;;5.73;100.00;101462.97;5031358;28;20544;-70
2022/11/05 05:41:29;;;;;;;14.27;8.98;;;;;;;5.75;100.00;101470.84;5031230;28;20456;-71
2022/11/05 05:43:54;;;;;;;12.15;7.80;;;;;;;5.74;100.00;101472.72;5032437;28;20056;-71
2022/11/05 05:46:19;;;;;;;12.95;8.82;;;;;;;5.72;100.00;101480.09;5032120;28;20021;-71
2022/11/05 05:48:49;;;;;;;15.27;9.45;;;;;;;5.69;100.00;101483.13;5030255;28;20501;-70
2022/11/05 05:51:15;;;;;;;12.88;8.63;;;;;;;5.70;100.00;101473.25;5030069;28;20349;-71
2022/11/05 05:53:41;;;;;;;14.07;8.75;;;;;;;5.69;100.00;101475.06;5028537;28;20036;-71
2022/11/05 05:56:06;;;;;;;15.15;8.68;;;;;;;5.65;100.00;101477.28;5032148;28;20019;-71
2022/11/05 05:58:37;;;;;;;14.05;8.30;;;;;;;5.67;100.00;101477.13;5031337;28;20033;-69
2022/11/05 06:01:08;;;;;;;13.70;8.27;;;;;;;5.65;100.00;101473.78;5027131;28;20044;-69
2022/11/05 06:03:34;;;;;;;15.32;8.20;;;;;;;5.66;100.00;101486.19;5021027;28;20034;-72
2022/11/05 06:06:04;;;;;;;13.73;8.30;;;;;;;5.63;100.00;101481.16;5016763;28;20040;-69
2022/11/05 06:08:29;;;;;;;13.38;8.70;;;;;;;5.64;100.00;101474.78;5029114;28;20033;-69
2022/11/05 06:10:55;;;;;;;11.05;7.80;;;;;;;5.59;100.00;101479.88;5032332;28;20028;-70
2022/11/05 06:13:20;;;;;;;17.85;8.90;;;;;;;5.61;100.00;101477.81;5032102;28;20408;-70
2022/11/05 06:15:45;;;;;;;14.32;8.50;;;;;;;5.61;100.00;101472.47;5032230;28;20433;-72
2022/11/05 06:18:10;;;;;;;13.73;7.65;;;;;;;5.62;100.00;101479.50;5029065;28;20033;-70
2022/11/05 06:20:36;;;;;;;15.07;8.48;;;;;;;5.62;100.00;101479.50;5030451;28;20025;-72
2022/11/05 06:23:01;;;;;;;13.15;7.82;;;;;;;5.61;100.00;101477.81;5030579;28;20132;-72
2022/11/05 06:25:26;;;;;;;12.05;8.35;;;;;;;5.62;100.00;101492.94;5031651;28;20030;-70
2022/11/05 06:27:52;;;;;;;12.50;8.35;;;;;;;5.57;100.00;101487.25;5032505;28;20083;-71
2022/11/05 06:30:18;;;;;;;14.45;7.72;;;;;;;5.58;100.00;101494.28;5031560;28;20060;-69
2022/11/05 06:32:44;;;;;;;13.23;7.82;;;;;;;5.56;100.00;101485.59;5030917;28;20052;-71
2022/11/05 06:35:10;;;;;;;17.30;7.88;;;;;;;5.53;100.00;101481.41;5032042;28;20431;-69
2022/11/05 06:37:35;;;;;;;14.35;8.50;;;;;;;5.55;100.00;101486.59;5029677;28;20464;-71
2022/11/05 06:40:00;;;;;;;11.27;7.82;;;;;;;5.58;100.00;101487.06;5031723;28;20022;-70
2022/11/05 06:42:26;;;;;;;14.30;7.80;;;;;;;5.59;100.00;101495.97;5030733;28;20045;-69
2022/11/05 06:44:52;;;;;;;14.02;8.20;;;;;;;5.59;100.00;101498.66;5031963;28;20033;-69
2022/11/05 06:47:18;;;;;;;13.40;8.00;;;;;;;5.58;100.00;101478.19;5031239;28;20064;-72
2022/11/05 06:49:45;;;;;;;14.65;8.25;;;;;;;5.58;100.00;101488.91;5031832;28;20021;-72
2022/11/05 06:52:11;;;;;;;15.50;7.70;;;;;;;5.57;100.00;101492.59;5026673;28;20033;-72
2022/11/05 06:54:36;;;;;;;12.75;8.05;;;;;;;5.58;100.00;101489.75;5035421;28;20075;-69
2022/11/05 06:57:03;;;;;;;11.32;7.97;;;;;;;5.62;100.00;101491.06;5034318;28;20034;-69
2022/11/05 06:59:28;;;;;;;12.32;7.65;;;;;;;5.58;100.00;101497.81;5035268;28;20032;-69
2022/11/05 07:01:54;;;;;;;12.48;7.53;;;;;;;5.57;100.00;101503.34;5032411;28;20368;-71
2022/11/05 07:04:19;;;;;;;15.20;7.85;;;;;;;5.57;100.00;101506.03;5035333;28;20025;-69
2022/11/05 07:06:44;;;;;;;12.82;8.02;;;;;;;5.60;100.00;101509.22;5034474;28;20485;-71
2022/11/05 07:09:09;;;;;;;15.48;8.15;;;;;;;5.60;100.00;101513.72;5034597;28;20033;-70
2022/11/05 07:11:35;;;;;;;12.82;7.63;;;;;;;5.57;100.00;101517.63;5035525;28;20342;-72
2022/11/05 07:14:00;;;;;;;13.82;8.15;;;;;;;5.60;100.00;101519.97;5033664;28;20032;-69
2022/11/05 07:16:25;;;;;;;13.68;8.20;;;;;;;5.60;100.00;101514.59;5034741;28;20025;-71
2022/11/05 07:18:51;;;;;;;16.42;8.45;;;;;;;5.63;100.00;101514.25;5033219;28;20025;-72
2022/11/05 07:21:18;;;;;;;12.93;7.60;;;;;;;5.65;100.00;101519.44;5032911;28;20045;-71
2022/11/05 07:23:44;;;;;;;13.50;8.52;;;;;;;5.64;100.00;101517.75;5035228;28;20368;-69
2022/11/05 07:26:09;;;;;;;12.88;8.15;;;;;;;5.62;100.00;101525.97;5035219;28;20028;-69
2022/11/05 07:28:34;;;;;;;14.20;8.45;;;;;;;5.60;100.00;101528.00;5033554;28;20573;-71
2022/11/05 07:31:04;;;;;;;13.43;8.30;;;;;;;5.62;100.00;101531.34;5034558;28;20056;-71
2022/11/05 07:33:30;;;;;;;11.68;7.97;;;;;;;5.64;100.00;101526.63;5018713;28;20061;-72
2022/11/05 07:35:56;;;;;;;13.85;8.80;;;;;;;5.63;100.00;101535.72;5013592;28;20516;-73
2022/11/05 07:38:22;;;;;;;15.15;8.60;;;;;;;5.64;100.00;101531.19;5025892;28;20083;-71
2022/11/05 07:40:47;;;;;;;15.20;8.55;;;;;;;5.66;100.00;101529.13;5033250;28;20033;-71
2022/11/05 07:43:13;;;;;;;13.35;8.00;;;;;;;5.68;100.00;101533.34;5033798;28;20022;-73
2022/11/05 07:45:38;;;;;;;12.48;8.13;;;;;;;5.70;100.00;101540.38;5034264;28;20028;-71
2022/11/05 07:48:04;;;;;;;16.23;8.65;;;;;;;5.70;100.00;101540.38;5028387;28;20033;-72
2022/11/05 07:50:32;;;;;;;13.35;8.48;;;;;;;5.77;100.00;101544.88;5033355;28;20036;-73
2022/11/05 07:52:59;;;;;;;11.18;8.35;;;;;;;5.76;100.00;101545.88;5034312;28;20033;-71
2022/11/05 07:55:25;;;;;;;15.93;8.85;;;;;;;5.75;100.00;101548.75;5031106;28;20018;-73
2022/11/05 07:57:50;;;;;;;14.07;8.85;;;;;;;5.80;100.00;101549.06;5029291;28;20263;-78
2022/11/05 08:00:23;;;;;;;13.93;8.98;;;;;;;5.83;100.00;101548.72;5033201;28;20056;-74
2022/11/05 08:03:03;;;;;;;16.67;8.98;;;;;;;5.88;100.00;101538.25;5015150;28;20030;-79
2022/11/05 08:05:29;;;;;;;12.13;9.38;;;;;;;5.92;100.00;101541.41;5020077;28;20032;-73
2022/11/05 08:07:56;;;;;;;17.13;9.32;;;;;;;5.92;100.00;101541.41;5022932;28;20416;-73
2022/11/05 08:10:22;;;;;;;14.77;9.20;;;;;;;5.94;100.00;101548.28;5014054;28;20083;-71
2022/11/05 08:12:48;;;;;;;17.48;9.40;;;;;;;5.96;100.00;101537.38;5038590;28;20022;-73
2022/11/05 08:15:13;;;;;;;16.15;9.27;;;;;;;5.98;100.00;101543.44;5029057;28;20347;-75
2022/11/05 08:17:39;;;;;;;16.30;9.65;;;;;;;6.02;100.00;101545.59;5027842;28;20037;-73
2022/11/05 08:20:05;;;;;;;17.40;10.32;;;;;;;6.06;100.00;101538.00;5030275;28;20296;-74
2022/11/05 08:22:30;;;;;;;13.40;9.77;;;;;;;6.09;100.00;101543.03;5013784;28;20026;-70
2022/11/05 08:24:55;;;;;;;17.05;9.88;;;;;;;6.13;100.00;101538.97;5014045;28;20036;-74
2022/11/05 08:27:21;;;;;;;17.85;9.93;;;;;;;6.20;100.00;101539.94;5013974;28;20432;-72
2022/11/05 08:29:46;;;;;;;18.23;10.60;;;;;;;6.24;100.00;101539.59;5036896;28;20029;-71
2022/11/05 08:32:11;;;;;;;15.20;10.23;;;;;;;6.30;100.00;101537.00;5033272;28;20037;-82
2022/11/05 08:34:37;;;;;;;18.35;10.05;;;;;;;6.34;100.00;101545.53;5032635;28;20021;-78
2022/11/05 08:37:02;;;;;;;15.45;9.55;;;;;;;6.42;100.00;101542.78;5033879;28;20026;-75
2022/11/05 08:39:27;;;;;;;14.35;9.45;;;;;;;6.48;100.00;101542.06;5031472;28;20029;-72
2022/11/05 08:41:53;;;;;;;16.67;9.75;;;;;;;6.49;100.00;101540.22;5033824;28;20365;-74
2022/11/05 08:44:18;;;;;;;17.10;10.40;;;;;;;6.55;100.00;101550.22;5033405;28;20026;-74
2022/11/05 08:46:44;;;;;;;18.15;9.82;;;;;;;6.62;100.00;101550.38;5031786;28;20064;-77
2022/11/05 08:49:09;;;;;;;14.63;10.10;;;;;;;6.67;100.00;101551.50;5031083;28;20037;-74
2022/11/05 08:51:34;;;;;;;13.90;9.52;;;;;;;6.72;100.00;101545.56;5031926;28;20095;-70
2022/11/05 08:54:00;;;;;;;19.50;10.05;;;;;;;6.79;100.00;101551.03;5022216;28;20018;-71
2022/11/05 08:56:25;;;;;;;14.68;9.45;;;;;;;6.82;100.00;101546.13;5034243;28;20516;-72
2022/11/05 08:58:50;;;;;;;16.30;9.50;;;;;;;6.88;100.00;101545.41;5032884;28;20026;-73
2022/11/05 09:01:16;;;;;;;17.88;9.93;;;;;;;6.94;100.00;101556.44;5030854;28;20021;-73
2022/11/05 09:03:41;;;;;;;17.90;9.63;;;;;;;6.99;100.00;101545.97;5033062;28;20057;-75
2022/11/05 09:06:06;;;;;;;13.65;9.65;;;;;;;7.08;100.00;101547.53;5031364;28;20055;-72
2022/11/05 09:08:32;;;;;;;13.63;9.07;;;;;;;7.12;100.00;101551.53;5031006;28;20452;-75
2022/11/05 09:10:57;;;;;;;14.63;9.63;;;;;;;7.23;100.00;101547.56;5033188;28;20029;-77
2022/11/05 09:13:23;;;;;;;13.48;8.93;;;;;;;7.28;100.00;101551.38;5031738;28;20026;-73
2022/11/05 09:15:49;;;;;;;14.40;8.43;;;;;;;7.37;100.00;101553.97;5032016;28;20029;-74
2022/11/05 09:18:16;;;;;;;15.68;9.65;;;;;;;7.41;100.00;101550.72;5030298;28;20121;-71
2022/11/05 09:20:41;;;;;;;15.73;9.43;;;;;;;7.49;100.00;101552.47;5032278;28;20025;-73
2022/11/05 09:23:07;;;;;;;17.85;9.30;;;;;;;7.55;100.00;101542.78;5031163;28;20025;-75
2022/11/05 09:25:33;;;;;;;14.55;8.93;;;;;;;7.62;100.00;101544.56;5029135;28;20041;-72
2022/11/05 09:28:16;;;;;;;14.63;9.10;;;;;;;7.71;100.00;101555.22;5031788;28;20117;-76
2022/11/05 09:30:44;;;;;;;12.90;8.50;;;;;;;7.79;100.00;101552.44;5032679;28;20033;-71
2022/11/05 09:33:10;;;;;;;12.05;8.85;;;;;;;7.84;100.00;101543.78;5034012;28;20615;-75
2022/11/05 09:35:39;;;;;;;12.50;8.27;;;;;;;7.91;100.00;101550.06;5021485;28;20050;-72
2022/11/05 09:38:05;;;;;;;14.38;8.85;;;;;;;7.98;100.00;101557.19;5030341;28;20025;-71
2022/11/05 09:40:34;;;;;;;15.65;8.45;;;;;;;8.09;100.00;101541.56;5027623;28;20026;-69
2022/11/05 09:43:01;;;;;;;12.70;7.90;;;;;;;8.14;100.00;101560.69;5014245;28;20405;-71
2022/11/05 09:45:27;;;;;;;12.05;7.78;;;;;;;8.22;100.00;101563.25;5020781;28;20032;-71
2022/11/05 09:47:58;;;;;;;9.95;7.20;;;;;;;8.30;100.00;101562.28;5031992;28;20041;-72
2022/11/05 09:50:31;;;;;;;12.25;7.47;;;;;;;8.34;100.00;101559.03;5032688;28;20025;-77
2022/11/05 09:52:57;;;;;;;15.02;7.47;;;;;;;8.46;100.00;101558.56;5032619;28;20338;-74
2022/11/05 09:55:29;;;;;;;11.95;7.22;;;;;;;8.55;100.00;101568.19;5027458;28;20071;-77
2022/11/05 09:58:01;;;;;;;11.63;7.40;;;;;;;8.67;100.00;101565.78;5032557;28;20099;-75
2022/11/05 10:00:28;;;;;;;11.63;7.43;;;;;;;8.78;100.00;101572.50;5030376;28;20029;-72
2022/11/05 10:02:58;;;;;;;10.90;6.97;;;;;;;8.82;100.00;101571.09;5032304;28;20032;-75
2022/11/05 10:05:26;;;;;;;13.55;6.90;;;;;;;8.81;100.00;101572.13;5031358;28;20029;-78
2022/11/05 10:07:58;;;;;;;13.15;7.20;;;;;;;8.81;100.00;101574.81;5032322;28;20117;-74
2022/11/05 10:10:36;;;;;;;12.40;7.00;;;;;;;8.83;100.00;101584.41;5028862;28;20018;-76
2022/11/05 10:13:09;;;;;;;8.82;6.55;;;;;;;8.80;100.00;101589.34;5032643;28;20036;-73
2022/11/05 10:15:41;;;;;;;14.00;7.40;;;;;;;8.83;100.00;101586.25;5029422;28;20104;-71
2022/11/05 10:18:22;;;;;;;12.07;7.20;;;;;;;8.90;100.00;101592.53;5030600;28;20461;-74
2022/11/05 10:20:48;;;;;;;14.98;7.53;;;;;;;8.87;100.00;101592.94;5031007;28;20112;-74
2022/11/05 10:23:16;;;;;;;12.25;7.43;;;;;;;8.89;100.00;101596.25;5031122;28;20509;-77
2022/11/05 10:25:46;;;;;;;12.38;7.57;;;;;;;8.87;100.00;101603.72;5031167;28;20055;-72
2022/11/05 10:28:20;;;;;;;15.55;7.90;;;;;;;8.88;100.00;101591.91;5035052;28;20129;-76
2022/11/05 10:30:49;;;;;;;10.93;7.03;;;;;;;8.93;100.00;101597.53;5034309;28;20026;-75
2022/11/05 10:33:26;;;;;;;10.60;6.90;;;;;;;8.93;100.00;101608.34;5034955;28;20025;-76
2022/11/05 10:35:56;;;;;;;12.27;7.47;;;;;;;8.95;100.00;101619.78;5031500;28;20029;-77
2022/11/05 10:38:22;;;;;;;14.63;7.38;;;;;;;8.93;100.00;101611.03;5033661;28;20480;-76
2022/11/05 10:41:32;;;;;;;12.88;7.70;;;;;;;8.94;100.00;101612.72;5034605;28;20140;-73
2022/11/05 10:44:14;;;;;;;13.68;7.65;;;;;;;8.98;100.00;101603.22;5034466;28;20075;-76
2022/11/05 10:46:49;;;;;;;14.27;7.57;;;;;;;8.98;100.00;101594.25;5035773;28;20025;-74
2022/11/05 10:49:45;;;;;;;13.38;7.90;;;;;;;9.03;100.00;101600.75;5035770;28;20022;-71
2022/11/05 10:52:21;;;;;;;11.30;7.32;;;;;;;8.99;100.00;101601.34;5015578;28;20038;-75
2022/11/05 10:54:49;;;;;;;16.27;7.80;;;;;;;8.99;100.00;101590.53;5028081;28;20117;-75
2022/11/05 10:57:32;;;;;;;16.30;7.95;;;;;;;9.04;100.00;101594.31;5035865;28;20025;-73
2022/11/05 11:00:18;;;;;;;11.63;7.63;;;;;;;9.12;100.00;101589.78;5035507;28;20075;-75
2022/11/05 11:02:50;;;;;;;11.00;7.50;;;;;;;9.09;100.00;101598.28;5034210;28;20052;-73
2022/11/05 11:05:24;;;;;;;12.32;8.02;;;;;;;9.10;100.00;101597.25;5034413;28;20033;-75
2022/11/05 11:07:58;;;;;;;10.82;7.32;;;;;;;9.13;100.00;101596.84;5035104;28;20364;-76
2022/11/05 11:10:25;;;;;;;15.57;8.52;;;;;;;9.14;100.00;101598.53;5025339;28;20478;-76
2022/11/05 11:12:51;;;;;;;14.15;7.93;;;;;;;9.18;100.00;101597.13;5035040;28;20018;-76
2022/11/05 11:15:20;;;;;;;15.88;8.48;;;;;;;9.22;100.00;101598.38;5034139;28;20026;-75
2022/11/05 11:17:45;;;;;;;14.30;7.97;;;;;;;9.25;100.00;101599.84;5034993;28;20461;-77
2022/11/05 11:20:27;;;;;;;13.10;8.30;;;;;;;9.28;100.00;101600.28;5024422;28;20040;-74
2022/11/05 11:23:14;;;;;;;18.45;8.13;;;;;;;9.28;100.00;101583.25;5015124;28;20476;-75
2022/11/05 11:25:56;;;;;;;13.05;7.80;;;;;;;9.31;100.00;101580.16;5028955;28;20025;-72
2022/11/05 11:28:33;;;;;;;15.23;8.10;;;;;;;9.31;100.00;101582.84;5034259;28;20408;-76
2022/11/05 11:31:14;;;;;;;14.68;7.65;;;;;;;9.40;100.00;101570.84;5034616;28;20095;-78
2022/11/05 11:33:44;;;;;;;14.65;7.82;;;;;;;9.48;100.00;101573.41;5034665;28;20028;-76
2022/11/05 11:36:11;;;;;;;14.35;7.03;;;;;;;9.61;100.00;101575.31;5033652;28;20464;-77
2022/11/05 11:38:37;;;;;;;14.60;6.90;;;;;;;9.63;100.00;101586.78;5031218;28;20364;-72
2022/11/05 11:41:21;;;;;;;13.95;6.93;;;;;;;9.70;100.00;101579.53;5034051;28;20479;-73
2022/11/05 11:43:47;;;;;;;14.38;7.22;;;;;;;9.80;100.00;101581.00;5032714;28;20029;-77
2022/11/05 11:46:16;;;;;;;13.80;7.28;;;;;;;9.82;100.00;101577.06;5033460;28;20029;-73
2022/11/05 11:48:46;;;;;;;12.18;6.90;;;;;;;9.89;100.00;101574.41;5034612;28;20032;-75
2022/11/05 11:51:39;;;;;;;13.52;7.20;;;;;;;9.88;100.00;101589.78;5034568;28;20033;-77
2022/11/05 11:54:16;;;;;;;12.98;6.20;;;;;;;9.88;100.00;101580.84;5024424;28;20104;-76
2022/11/05 11:56:44;;;;;;;11.38;6.05;;;;;;;9.91;100.00;101583.97;5033258;28;20033;-77
2022/11/05 11:59:22;;;;;;;10.98;6.40;;;;;;;9.96;100.00;101574.44;5033964;28;20064;-75
2022/11/05 12:02:29;;;;;;;12.07;5.88;;;;;;;10.01;100.00;101577.34;5030758;28;20061;-74
2022/11/05 12:05:11;;;;;;;11.40;6.00;;;;;;;10.02;100.00;101566.31;5019321;28;20042;-75
2022/11/05 12:08:09;;;;;;;15.60;6.72;;;;;;;10.06;100.00;101562.19;5014511;28;20022;-76